sensor_id;sensor_type;location;lat;lon;timestamp;P1;durP1;ratioP1;P2;durP2;ratioP2
65463;SDS011;52063;45.110;9.870;2023-05-14T00:00:58;0.70;;;0.50;;
65463;SDS011;52063;45.110;9.870;2023-05-14T00:03:24;1.27;;;0.60;;
65463;SDS011;52063;45.110;9.870;2023-05-14T00:05:49;1.77;;;0.63;;
65463;SDS011;52063;45.110;9.870;2023-05-14T00:08:14;1.90;;;0.50;;
65463;SDS011;52063;45.110;9.870;2023-05-14T00:10:40;1.07;;;0.60;;
65463;SDS011;52063;45.110;9.870;2023-05-14T00:13:05;0.77;;;0.50;;
65463;SDS011;52063;45.110;9.870;2023-05-14T00:15:31;0.83;;;0.30;;
65463;SDS011;52063;45.110;9.870;2023-05-14T00:17:56;0.70;;;0.50;;
65463;SDS011;52063;45.110;9.870;2023-05-14T00:20:22;2.00;;;0.57;;
65463;SDS011;52063;45.110;9.870;2023-05-14T00:22:47;0.87;;;0.53;;
65463;SDS011;52063;45.110;9.870;2023-05-14T00:25:13;1.13;;;0.50;;
65463;SDS011;52063;45.110;9.870;2023-05-14T00:27:38;1.00;;;0.50;;
65463;SDS011;52063;45.110;9.870;2023-05-14T00:30:04;0.85;;;0.60;;
65463;SDS011;52063;45.110;9.870;2023-05-14T00:32:31;0.80;;;0.55;;
65463;SDS011;52063;45.110;9.870;2023-05-14T00:34:56;0.80;;;0.50;;
65463;SDS011;52063;45.110;9.870;2023-05-14T00:37:22;0.88;;;0.57;;
65463;SDS011;52063;45.110;9.870;2023-05-14T00:39:47;0.90;;;0.50;;
65463;SDS011;52063;45.110;9.870;2023-05-14T00:42:13;3.23;;;0.50;;
65463;SDS011;52063;45.110;9.870;2023-05-14T00:44:38;0.77;;;0.50;;
65463;SDS011;52063;45.110;9.870;2023-05-14T00:47:04;0.70;;;0.50;;
65463;SDS011;52063;45.110;9.870;2023-05-14T00:49:30;1.27;;;0.60;;
65463;SDS011;52063;45.110;9.870;2023-05-14T00:51:55;1.10;;;0.77;;
65463;SDS011;52063;45.110;9.870;2023-05-14T00:54:23;0.90;;;0.57;;
65463;SDS011;52063;45.110;9.870;2023-05-14T00:56:49;0.80;;;0.40;;
65463;SDS011;52063;45.110;9.870;2023-05-14T00:59:15;0.60;;;0.50;;
65463;SDS011;52063;45.110;9.870;2023-05-14T01:01:40;1.53;;;0.50;;
65463;SDS011;52063;45.110;9.870;2023-05-14T01:04:06;1.27;;;0.50;;
65463;SDS011;52063;45.110;9.870;2023-05-14T01:06:38;0.63;;;0.40;;
65463;SDS011;52063;45.110;9.870;2023-05-14T01:09:08;0.50;;;0.40;;
65463;SDS011;52063;45.110;9.870;2023-05-14T01:14:53;0.73;;;0.60;;
65463;SDS011;52063;45.110;9.870;2023-05-14T01:17:24;0.70;;;0.40;;
65463;SDS011;52063;45.110;9.870;2023-05-14T01:19:52;1.00;;;0.55;;
65463;SDS011;52063;45.110;9.870;2023-05-14T01:22:19;1.45;;;0.50;;
65463;SDS011;52063;45.110;9.870;2023-05-14T01:24:44;1.87;;;0.50;;
65463;SDS011;52063;45.110;9.870;2023-05-14T01:27:30;3.13;;;0.50;;
65463;SDS011;52063;45.110;9.870;2023-05-14T01:32:55;0.98;;;0.50;;
65463;SDS011;52063;45.110;9.870;2023-05-14T01:35:24;0.80;;;0.45;;
65463;SDS011;52063;45.110;9.870;2023-05-14T01:37:52;0.70;;;0.50;;
65463;SDS011;52063;45.110;9.870;2023-05-14T01:40:19;0.70;;;0.40;;
65463;SDS011;52063;45.110;9.870;2023-05-14T01:42:45;0.70;;;0.50;;
65463;SDS011;52063;45.110;9.870;2023-05-14T01:45:11;1.03;;;0.50;;
65463;SDS011;52063;45.110;9.870;2023-05-14T01:47:36;1.00;;;0.60;;
65463;SDS011;52063;45.110;9.870;2023-05-14T01:50:02;1.50;;;0.43;;
65463;SDS011;52063;45.110;9.870;2023-05-14T01:52:27;0.70;;;0.43;;
65463;SDS011;52063;45.110;9.870;2023-05-14T01:54:53;0.70;;;0.47;;
65463;SDS011;52063;45.110;9.870;2023-05-14T01:57:18;0.80;;;0.53;;
65463;SDS011;52063;45.110;9.870;2023-05-14T01:59:44;0.70;;;0.50;;
65463;SDS011;52063;45.110;9.870;2023-05-14T02:02:09;0.80;;;0.50;;
65463;SDS011;52063;45.110;9.870;2023-05-14T02:04:35;0.57;;;0.40;;
65463;SDS011;52063;45.110;9.870;2023-05-14T02:07:00;0.80;;;0.50;;
65463;SDS011;52063;45.110;9.870;2023-05-14T02:09:26;1.40;;;0.75;;
65463;SDS011;52063;45.110;9.870;2023-05-14T02:11:51;3.07;;;0.40;;
65463;SDS011;52063;45.110;9.870;2023-05-14T02:14:16;0.70;;;0.50;;
65463;SDS011;52063;45.110;9.870;2023-05-14T02:16:42;1.13;;;0.47;;
65463;SDS011;52063;45.110;9.870;2023-05-14T02:19:07;1.02;;;0.50;;
65463;SDS011;52063;45.110;9.870;2023-05-14T02:21:33;1.00;;;0.50;;
65463;SDS011;52063;45.110;9.870;2023-05-14T02:23:59;0.68;;;0.60;;
65463;SDS011;52063;45.110;9.870;2023-05-14T02:26:24;1.17;;;0.30;;
65463;SDS011;52063;45.110;9.870;2023-05-14T02:28:49;0.50;;;0.30;;
65463;SDS011;52063;45.110;9.870;2023-05-14T02:31:15;0.80;;;0.50;;
65463;SDS011;52063;45.110;9.870;2023-05-14T02:33:43;1.13;;;0.60;;
65463;SDS011;52063;45.110;9.870;2023-05-14T02:36:09;1.27;;;0.50;;
65463;SDS011;52063;45.110;9.870;2023-05-14T02:38:34;1.20;;;0.43;;
65463;SDS011;52063;45.110;9.870;2023-05-14T02:41:00;1.15;;;0.40;;
65463;SDS011;52063;45.110;9.870;2023-05-14T02:43:25;0.80;;;0.50;;
65463;SDS011;52063;45.110;9.870;2023-05-14T02:45:51;1.20;;;0.50;;
65463;SDS011;52063;45.110;9.870;2023-05-14T02:48:16;0.77;;;0.50;;
65463;SDS011;52063;45.110;9.870;2023-05-14T02:50:42;0.63;;;0.40;;
65463;SDS011;52063;45.110;9.870;2023-05-14T02:53:07;0.90;;;0.53;;
65463;SDS011;52063;45.110;9.870;2023-05-14T02:55:33;0.70;;;0.50;;
65463;SDS011;52063;45.110;9.870;2023-05-14T02:57:59;1.00;;;0.60;;
65463;SDS011;52063;45.110;9.870;2023-05-14T03:00:25;1.57;;;0.40;;
65463;SDS011;52063;45.110;9.870;2023-05-14T03:02:50;0.70;;;0.50;;
65463;SDS011;52063;45.110;9.870;2023-05-14T03:05:16;0.60;;;0.40;;
65463;SDS011;52063;45.110;9.870;2023-05-14T03:07:41;0.77;;;0.50;;
65463;SDS011;52063;45.110;9.870;2023-05-14T03:10:07;0.83;;;0.40;;
65463;SDS011;52063;45.110;9.870;2023-05-14T03:12:32;0.60;;;0.50;;
65463;SDS011;52063;45.110;9.870;2023-05-14T03:14:58;0.70;;;0.40;;
65463;SDS011;52063;45.110;9.870;2023-05-14T03:17:23;0.80;;;0.50;;
65463;SDS011;52063;45.110;9.870;2023-05-14T03:19:49;0.70;;;0.47;;
65463;SDS011;52063;45.110;9.870;2023-05-14T03:22:15;0.70;;;0.50;;
65463;SDS011;52063;45.110;9.870;2023-05-14T03:24:41;1.38;;;0.68;;
65463;SDS011;52063;45.110;9.870;2023-05-14T03:27:07;0.60;;;0.60;;
65463;SDS011;52063;45.110;9.870;2023-05-14T03:29:32;0.60;;;0.50;;
65463;SDS011;52063;45.110;9.870;2023-05-14T03:31:58;0.60;;;0.40;;
65463;SDS011;52063;45.110;9.870;2023-05-14T03:34:23;0.60;;;0.40;;
65463;SDS011;52063;45.110;9.870;2023-05-14T03:36:49;0.60;;;0.50;;
65463;SDS011;52063;45.110;9.870;2023-05-14T03:39:14;0.73;;;0.50;;
65463;SDS011;52063;45.110;9.870;2023-05-14T03:41:44;0.70;;;0.47;;
65463;SDS011;52063;45.110;9.870;2023-05-14T03:44:10;0.70;;;0.50;;
65463;SDS011;52063;45.110;9.870;2023-05-14T03:46:36;0.80;;;0.50;;
65463;SDS011;52063;45.110;9.870;2023-05-14T03:49:01;0.97;;;0.50;;
65463;SDS011;52063;45.110;9.870;2023-05-14T03:51:27;0.80;;;0.40;;
65463;SDS011;52063;45.110;9.870;2023-05-14T03:53:53;0.93;;;0.40;;
65463;SDS011;52063;45.110;9.870;2023-05-14T03:56:18;2.03;;;0.40;;
65463;SDS011;52063;45.110;9.870;2023-05-14T03:58:43;1.67;;;0.40;;
65463;SDS011;52063;45.110;9.870;2023-05-14T04:01:09;1.43;;;0.50;;
65463;SDS011;52063;45.110;9.870;2023-05-14T04:03:34;0.70;;;0.50;;
65463;SDS011;52063;45.110;9.870;2023-05-14T04:06:00;0.70;;;0.57;;
65463;SDS011;52063;45.110;9.870;2023-05-14T04:08:26;1.38;;;0.73;;
65463;SDS011;52063;45.110;9.870;2023-05-14T04:10:51;1.07;;;0.30;;
65463;SDS011;52063;45.110;9.870;2023-05-14T04:13:16;0.50;;;0.30;;
65463;SDS011;52063;45.110;9.870;2023-05-14T04:15:42;0.50;;;0.40;;
65463;SDS011;52063;45.110;9.870;2023-05-14T04:18:08;0.90;;;0.40;;
65463;SDS011;52063;45.110;9.870;2023-05-14T04:20:33;0.80;;;0.40;;
65463;SDS011;52063;45.110;9.870;2023-05-14T04:22:58;0.70;;;0.60;;
65463;SDS011;52063;45.110;9.870;2023-05-14T04:25:24;1.33;;;0.40;;
65463;SDS011;52063;45.110;9.870;2023-05-14T04:27:49;3.40;;;0.53;;
65463;SDS011;52063;45.110;9.870;2023-05-14T04:30:15;2.00;;;0.50;;
65463;SDS011;52063;45.110;9.870;2023-05-14T04:32:40;0.63;;;0.50;;
65463;SDS011;52063;45.110;9.870;2023-05-14T04:35:06;1.83;;;0.40;;
65463;SDS011;52063;45.110;9.870;2023-05-14T04:37:33;1.20;;;0.50;;
65463;SDS011;52063;45.110;9.870;2023-05-14T04:39:58;3.33;;;0.50;;
65463;SDS011;52063;45.110;9.870;2023-05-14T04:42:25;0.45;;;0.30;;
65463;SDS011;52063;45.110;9.870;2023-05-14T04:44:50;0.63;;;0.60;;
65463;SDS011;52063;45.110;9.870;2023-05-14T04:47:16;0.50;;;0.40;;
65463;SDS011;52063;45.110;9.870;2023-05-14T04:49:42;2.47;;;0.40;;
65463;SDS011;52063;45.110;9.870;2023-05-14T04:52:07;1.52;;;0.40;;
65463;SDS011;52063;45.110;9.870;2023-05-14T04:54:33;0.73;;;0.50;;
65463;SDS011;52063;45.110;9.870;2023-05-14T04:56:58;1.47;;;0.50;;
65463;SDS011;52063;45.110;9.870;2023-05-14T04:59:27;0.70;;;0.30;;
65463;SDS011;52063;45.110;9.870;2023-05-14T05:01:53;1.52;;;0.50;;
65463;SDS011;52063;45.110;9.870;2023-05-14T05:04:19;0.83;;;0.53;;
65463;SDS011;52063;45.110;9.870;2023-05-14T05:06:44;0.82;;;0.50;;
65463;SDS011;52063;45.110;9.870;2023-05-14T05:09:10;0.53;;;0.40;;
65463;SDS011;52063;45.110;9.870;2023-05-14T05:11:35;0.90;;;0.50;;
65463;SDS011;52063;45.110;9.870;2023-05-14T05:14:01;1.95;;;0.40;;
65463;SDS011;52063;45.110;9.870;2023-05-14T05:16:27;0.90;;;0.50;;
65463;SDS011;52063;45.110;9.870;2023-05-14T05:18:52;0.87;;;0.50;;
65463;SDS011;52063;45.110;9.870;2023-05-14T05:21:18;2.40;;;0.60;;
65463;SDS011;52063;45.110;9.870;2023-05-14T05:23:43;1.83;;;0.57;;
65463;SDS011;52063;45.110;9.870;2023-05-14T05:26:09;1.77;;;0.60;;
65463;SDS011;52063;45.110;9.870;2023-05-14T05:28:34;1.70;;;0.57;;
65463;SDS011;52063;45.110;9.870;2023-05-14T05:30:59;3.03;;;0.80;;
65463;SDS011;52063;45.110;9.870;2023-05-14T05:33:25;1.33;;;0.50;;
65463;SDS011;52063;45.110;9.870;2023-05-14T05:35:50;1.33;;;0.57;;
65463;SDS011;52063;45.110;9.870;2023-05-14T05:38:16;1.17;;;0.50;;
65463;SDS011;52063;45.110;9.870;2023-05-14T05:40:42;0.85;;;0.60;;
65463;SDS011;52063;45.110;9.870;2023-05-14T05:43:08;1.40;;;0.60;;
65463;SDS011;52063;45.110;9.870;2023-05-14T05:45:33;3.13;;;0.73;;
65463;SDS011;52063;45.110;9.870;2023-05-14T05:47:58;0.77;;;0.50;;
65463;SDS011;52063;45.110;9.870;2023-05-14T05:50:24;2.27;;;0.60;;
65463;SDS011;52063;45.110;9.870;2023-05-14T05:52:50;1.10;;;0.68;;
65463;SDS011;52063;45.110;9.870;2023-05-14T05:55:16;0.90;;;0.60;;
65463;SDS011;52063;45.110;9.870;2023-05-14T05:57:42;1.73;;;0.60;;
65463;SDS011;52063;45.110;9.870;2023-05-14T06:00:07;1.40;;;0.50;;
65463;SDS011;52063;45.110;9.870;2023-05-14T06:02:38;1.70;;;0.50;;
65463;SDS011;52063;45.110;9.870;2023-05-14T06:05:04;2.95;;;0.80;;
65463;SDS011;52063;45.110;9.870;2023-05-14T06:07:31;2.28;;;0.82;;
65463;SDS011;52063;45.110;9.870;2023-05-14T06:09:56;1.70;;;0.70;;
65463;SDS011;52063;45.110;9.870;2023-05-14T06:12:21;2.17;;;0.80;;
65463;SDS011;52063;45.110;9.870;2023-05-14T06:14:47;1.13;;;0.70;;
65463;SDS011;52063;45.110;9.870;2023-05-14T06:17:12;1.02;;;0.75;;
65463;SDS011;52063;45.110;9.870;2023-05-14T06:19:38;1.23;;;0.60;;
65463;SDS011;52063;45.110;9.870;2023-05-14T06:22:03;0.90;;;0.70;;
65463;SDS011;52063;45.110;9.870;2023-05-14T06:24:29;2.55;;;0.60;;
65463;SDS011;52063;45.110;9.870;2023-05-14T06:26:54;0.90;;;0.60;;
65463;SDS011;52063;45.110;9.870;2023-05-14T06:29:19;1.30;;;0.80;;
65463;SDS011;52063;45.110;9.870;2023-05-14T06:31:45;0.77;;;0.60;;
65463;SDS011;52063;45.110;9.870;2023-05-14T06:34:10;1.40;;;0.75;;
65463;SDS011;52063;45.110;9.870;2023-05-14T06:36:36;1.37;;;0.67;;
65463;SDS011;52063;45.110;9.870;2023-05-14T06:39:01;1.10;;;0.60;;
65463;SDS011;52063;45.110;9.870;2023-05-14T06:41:27;1.55;;;0.63;;
65463;SDS011;52063;45.110;9.870;2023-05-14T06:43:53;1.20;;;0.73;;
65463;SDS011;52063;45.110;9.870;2023-05-14T06:46:19;1.17;;;0.70;;
65463;SDS011;52063;45.110;9.870;2023-05-14T06:48:45;1.48;;;0.65;;
65463;SDS011;52063;45.110;9.870;2023-05-14T06:51:10;0.80;;;0.57;;
65463;SDS011;52063;45.110;9.870;2023-05-14T06:53:37;1.42;;;0.70;;
65463;SDS011;52063;45.110;9.870;2023-05-14T06:56:04;1.88;;;0.80;;
65463;SDS011;52063;45.110;9.870;2023-05-14T06:58:29;0.93;;;0.80;;
65463;SDS011;52063;45.110;9.870;2023-05-14T07:00:54;1.50;;;0.90;;
65463;SDS011;52063;45.110;9.870;2023-05-14T07:03:20;1.00;;;0.50;;
65463;SDS011;52063;45.110;9.870;2023-05-14T07:05:46;0.95;;;0.70;;
65463;SDS011;52063;45.110;9.870;2023-05-14T07:08:12;1.80;;;0.60;;
65463;SDS011;52063;45.110;9.870;2023-05-14T07:10:37;0.85;;;0.65;;
65463;SDS011;52063;45.110;9.870;2023-05-14T07:13:03;0.80;;;0.80;;
65463;SDS011;52063;45.110;9.870;2023-05-14T07:15:29;3.17;;;0.70;;
65463;SDS011;52063;45.110;9.870;2023-05-14T07:17:54;0.90;;;0.60;;
65463;SDS011;52063;45.110;9.870;2023-05-14T07:20:20;0.95;;;0.70;;
65463;SDS011;52063;45.110;9.870;2023-05-14T07:22:48;1.10;;;0.80;;
65463;SDS011;52063;45.110;9.870;2023-05-14T07:25:14;1.50;;;0.70;;
65463;SDS011;52063;45.110;9.870;2023-05-14T07:27:39;1.55;;;0.80;;
65463;SDS011;52063;45.110;9.870;2023-05-14T07:30:05;0.80;;;0.67;;
65463;SDS011;52063;45.110;9.870;2023-05-14T07:32:31;1.10;;;0.60;;
65463;SDS011;52063;45.110;9.870;2023-05-14T07:34:57;1.08;;;0.60;;
65463;SDS011;52063;45.110;9.870;2023-05-14T07:37:23;1.40;;;0.70;;
65463;SDS011;52063;45.110;9.870;2023-05-14T07:39:50;1.08;;;0.80;;
65463;SDS011;52063;45.110;9.870;2023-05-14T07:42:16;1.10;;;0.80;;
65463;SDS011;52063;45.110;9.870;2023-05-14T07:44:41;1.00;;;0.87;;
65463;SDS011;52063;45.110;9.870;2023-05-14T07:47:07;1.10;;;0.70;;
65463;SDS011;52063;45.110;9.870;2023-05-14T07:49:33;1.57;;;0.83;;
65463;SDS011;52063;45.110;9.870;2023-05-14T07:51:58;1.67;;;0.90;;
65463;SDS011;52063;45.110;9.870;2023-05-14T07:54:24;1.23;;;0.77;;
65463;SDS011;52063;45.110;9.870;2023-05-14T07:56:49;1.00;;;0.70;;
65463;SDS011;52063;45.110;9.870;2023-05-14T07:59:14;1.13;;;0.80;;
65463;SDS011;52063;45.110;9.870;2023-05-14T08:01:40;1.10;;;0.90;;
65463;SDS011;52063;45.110;9.870;2023-05-14T08:04:06;1.40;;;0.90;;
65463;SDS011;52063;45.110;9.870;2023-05-14T08:06:31;1.00;;;0.90;;
65463;SDS011;52063;45.110;9.870;2023-05-14T08:08:57;1.40;;;0.67;;
65463;SDS011;52063;45.110;9.870;2023-05-14T08:11:23;2.33;;;0.90;;
65463;SDS011;52063;45.110;9.870;2023-05-14T08:13:48;0.90;;;0.63;;
65463;SDS011;52063;45.110;9.870;2023-05-14T08:16:14;1.03;;;0.70;;
65463;SDS011;52063;45.110;9.870;2023-05-14T08:18:39;0.90;;;0.73;;
65463;SDS011;52063;45.110;9.870;2023-05-14T08:21:05;1.53;;;0.80;;
65463;SDS011;52063;45.110;9.870;2023-05-14T08:23:31;2.38;;;0.98;;
65463;SDS011;52063;45.110;9.870;2023-05-14T08:25:56;1.93;;;1.10;;
65463;SDS011;52063;45.110;9.870;2023-05-14T08:28:23;1.10;;;0.70;;
65463;SDS011;52063;45.110;9.870;2023-05-14T08:30:48;1.60;;;0.90;;
65463;SDS011;52063;45.110;9.870;2023-05-14T08:33:14;1.07;;;0.80;;
65463;SDS011;52063;45.110;9.870;2023-05-14T08:35:39;2.25;;;0.98;;
65463;SDS011;52063;45.110;9.870;2023-05-14T08:38:04;1.20;;;0.97;;
65463;SDS011;52063;45.110;9.870;2023-05-14T08:40:30;1.27;;;0.87;;
65463;SDS011;52063;45.110;9.870;2023-05-14T08:42:56;1.00;;;0.90;;
65463;SDS011;52063;45.110;9.870;2023-05-14T08:45:23;1.00;;;0.67;;
65463;SDS011;52063;45.110;9.870;2023-05-14T08:47:53;1.00;;;0.90;;
65463;SDS011;52063;45.110;9.870;2023-05-14T08:50:19;2.13;;;1.00;;
65463;SDS011;52063;45.110;9.870;2023-05-14T08:52:46;1.53;;;1.07;;
65463;SDS011;52063;45.110;9.870;2023-05-14T08:55:12;2.05;;;1.30;;
65463;SDS011;52063;45.110;9.870;2023-05-14T08:57:37;1.50;;;1.00;;
65463;SDS011;52063;45.110;9.870;2023-05-14T09:00:03;1.57;;;1.20;;
65463;SDS011;52063;45.110;9.870;2023-05-14T09:02:35;1.33;;;1.23;;
65463;SDS011;52063;45.110;9.870;2023-05-14T09:05:01;1.30;;;1.20;;
65463;SDS011;52063;45.110;9.870;2023-05-14T09:07:27;2.58;;;1.40;;
65463;SDS011;52063;45.110;9.870;2023-05-14T09:09:53;2.23;;;1.20;;
65463;SDS011;52063;45.110;9.870;2023-05-14T09:12:19;1.55;;;1.20;;
65463;SDS011;52063;45.110;9.870;2023-05-14T09:14:45;3.22;;;1.00;;
65463;SDS011;52063;45.110;9.870;2023-05-14T09:17:12;2.15;;;1.00;;
65463;SDS011;52063;45.110;9.870;2023-05-14T09:19:40;2.33;;;1.20;;
65463;SDS011;52063;45.110;9.870;2023-05-14T09:22:08;2.00;;;1.17;;
65463;SDS011;52063;45.110;9.870;2023-05-14T09:24:35;1.50;;;1.30;;
65463;SDS011;52063;45.110;9.870;2023-05-14T09:27:03;2.10;;;1.40;;
65463;SDS011;52063;45.110;9.870;2023-05-14T09:29:29;2.10;;;1.60;;
65463;SDS011;52063;45.110;9.870;2023-05-14T09:31:55;2.42;;;1.20;;
65463;SDS011;52063;45.110;9.870;2023-05-14T09:34:25;1.98;;;1.30;;
65463;SDS011;52063;45.110;9.870;2023-05-14T09:36:58;1.67;;;1.33;;
65463;SDS011;52063;45.110;9.870;2023-05-14T09:39:33;1.60;;;1.20;;
65463;SDS011;52063;45.110;9.870;2023-05-14T09:42:00;1.98;;;1.15;;
65463;SDS011;52063;45.110;9.870;2023-05-14T09:44:26;1.50;;;1.00;;
65463;SDS011;52063;45.110;9.870;2023-05-14T09:46:51;1.30;;;1.20;;
65463;SDS011;52063;45.110;9.870;2023-05-14T09:49:17;1.50;;;1.40;;
65463;SDS011;52063;45.110;9.870;2023-05-14T09:51:43;1.47;;;1.30;;
65463;SDS011;52063;45.110;9.870;2023-05-14T09:54:08;1.77;;;1.47;;
65463;SDS011;52063;45.110;9.870;2023-05-14T09:56:34;2.28;;;1.15;;
65463;SDS011;52063;45.110;9.870;2023-05-14T09:59:00;1.55;;;1.45;;
65463;SDS011;52063;45.110;9.870;2023-05-14T10:01:29;3.67;;;1.40;;
65463;SDS011;52063;45.110;9.870;2023-05-14T10:03:56;1.60;;;1.47;;
65463;SDS011;52063;45.110;9.870;2023-05-14T10:06:23;1.52;;;1.23;;
65463;SDS011;52063;45.110;9.870;2023-05-14T10:08:52;2.55;;;1.58;;
65463;SDS011;52063;45.110;9.870;2023-05-14T10:11:20;2.17;;;1.55;;
65463;SDS011;52063;45.110;9.870;2023-05-14T10:13:52;2.50;;;1.50;;
65463;SDS011;52063;45.110;9.870;2023-05-14T10:16:32;1.67;;;1.40;;
65463;SDS011;52063;45.110;9.870;2023-05-14T10:19:11;1.65;;;1.40;;
65463;SDS011;52063;45.110;9.870;2023-05-14T10:21:37;2.28;;;1.52;;
65463;SDS011;52063;45.110;9.870;2023-05-14T10:24:05;1.60;;;1.50;;
65463;SDS011;52063;45.110;9.870;2023-05-14T10:26:35;1.80;;;1.20;;
65463;SDS011;52063;45.110;9.870;2023-05-14T10:29:05;1.98;;;1.10;;
65463;SDS011;52063;45.110;9.870;2023-05-14T10:31:50;2.58;;;1.50;;
65463;SDS011;52063;45.110;9.870;2023-05-14T10:39:47;1.90;;;1.20;;
65463;SDS011;52063;45.110;9.870;2023-05-14T10:44:59;1.33;;;0.98;;
65463;SDS011;52063;45.110;9.870;2023-05-14T10:47:27;2.92;;;1.15;;
65463;SDS011;52063;45.110;9.870;2023-05-14T10:49:54;2.70;;;1.20;;
65463;SDS011;52063;45.110;9.870;2023-05-14T10:52:21;1.93;;;1.67;;
65463;SDS011;52063;45.110;9.870;2023-05-14T10:54:50;1.38;;;1.00;;
65463;SDS011;52063;45.110;9.870;2023-05-14T10:57:17;1.98;;;1.05;;
65463;SDS011;52063;45.110;9.870;2023-05-14T10:59:45;1.88;;;1.05;;
65463;SDS011;52063;45.110;9.870;2023-05-14T11:02:18;3.33;;;1.10;;
65463;SDS011;52063;45.110;9.870;2023-05-14T11:04:51;1.23;;;1.00;;
65463;SDS011;52063;45.110;9.870;2023-05-14T11:07:19;1.52;;;1.20;;
65463;SDS011;52063;45.110;9.870;2023-05-14T11:09:48;1.42;;;1.00;;
65463;SDS011;52063;45.110;9.870;2023-05-14T11:12:15;0.93;;;0.82;;
65463;SDS011;52063;45.110;9.870;2023-05-14T11:14:41;1.25;;;0.90;;
65463;SDS011;52063;45.110;9.870;2023-05-14T11:17:06;1.53;;;0.90;;
65463;SDS011;52063;45.110;9.870;2023-05-14T11:19:32;1.87;;;1.00;;
65463;SDS011;52063;45.110;9.870;2023-05-14T11:21:58;2.22;;;0.93;;
65463;SDS011;52063;45.110;9.870;2023-05-14T11:24:25;1.70;;;0.90;;
65463;SDS011;52063;45.110;9.870;2023-05-14T11:26:51;1.40;;;1.00;;
65463;SDS011;52063;45.110;9.870;2023-05-14T11:29:17;1.20;;;1.10;;
65463;SDS011;52063;45.110;9.870;2023-05-14T11:31:42;1.63;;;1.00;;
65463;SDS011;52063;45.110;9.870;2023-05-14T11:34:08;1.20;;;0.90;;
65463;SDS011;52063;45.110;9.870;2023-05-14T11:36:35;1.27;;;0.85;;
65463;SDS011;52063;45.110;9.870;2023-05-14T11:39:01;1.00;;;0.75;;
65463;SDS011;52063;45.110;9.870;2023-05-14T11:41:26;1.80;;;1.00;;
65463;SDS011;52063;45.110;9.870;2023-05-14T11:43:52;1.10;;;0.80;;
65463;SDS011;52063;45.110;9.870;2023-05-14T11:46:17;2.10;;;0.90;;
65463;SDS011;52063;45.110;9.870;2023-05-14T11:48:43;1.00;;;0.90;;
65463;SDS011;52063;45.110;9.870;2023-05-14T11:51:08;1.17;;;0.80;;
65463;SDS011;52063;45.110;9.870;2023-05-14T11:53:34;0.90;;;0.63;;
65463;SDS011;52063;45.110;9.870;2023-05-14T11:56:00;1.00;;;0.88;;
65463;SDS011;52063;45.110;9.870;2023-05-14T11:58:27;1.23;;;0.80;;
65463;SDS011;52063;45.110;9.870;2023-05-14T12:00:56;1.27;;;0.80;;
65463;SDS011;52063;45.110;9.870;2023-05-14T12:03:22;1.45;;;0.93;;
65463;SDS011;52063;45.110;9.870;2023-05-14T12:05:53;0.97;;;0.63;;
65463;SDS011;52063;45.110;9.870;2023-05-14T12:08:26;1.48;;;0.70;;
65463;SDS011;52063;45.110;9.870;2023-05-14T12:10:53;1.83;;;0.82;;
65463;SDS011;52063;45.110;9.870;2023-05-14T12:13:18;1.93;;;0.83;;
65463;SDS011;52063;45.110;9.870;2023-05-14T12:15:52;1.10;;;0.65;;
65463;SDS011;52063;45.110;9.870;2023-05-14T12:18:18;1.42;;;0.80;;
65463;SDS011;52063;45.110;9.870;2023-05-14T12:20:47;1.23;;;0.63;;
65463;SDS011;52063;45.110;9.870;2023-05-14T12:23:13;1.25;;;1.02;;
65463;SDS011;52063;45.110;9.870;2023-05-14T12:25:40;1.48;;;1.00;;
65463;SDS011;52063;45.110;9.870;2023-05-14T12:28:14;1.70;;;0.77;;
65463;SDS011;52063;45.110;9.870;2023-05-14T12:30:40;0.90;;;0.70;;
65463;SDS011;52063;45.110;9.870;2023-05-14T12:33:05;1.27;;;0.80;;
65463;SDS011;52063;45.110;9.870;2023-05-14T12:35:31;1.23;;;0.80;;
65463;SDS011;52063;45.110;9.870;2023-05-14T12:37:56;1.30;;;1.00;;
65463;SDS011;52063;45.110;9.870;2023-05-14T12:40:22;1.45;;;0.93;;
65463;SDS011;52063;45.110;9.870;2023-05-14T12:42:47;1.57;;;0.90;;
65463;SDS011;52063;45.110;9.870;2023-05-14T12:45:13;1.40;;;0.83;;
65463;SDS011;52063;45.110;9.870;2023-05-14T12:47:38;0.90;;;0.70;;
65463;SDS011;52063;45.110;9.870;2023-05-14T12:50:04;1.00;;;0.80;;
65463;SDS011;52063;45.110;9.870;2023-05-14T12:52:30;1.30;;;1.10;;
65463;SDS011;52063;45.110;9.870;2023-05-14T12:54:55;1.00;;;0.70;;
65463;SDS011;52063;45.110;9.870;2023-05-14T12:57:21;1.50;;;0.90;;
65463;SDS011;52063;45.110;9.870;2023-05-14T12:59:46;2.23;;;0.90;;
65463;SDS011;52063;45.110;9.870;2023-05-14T13:02:11;1.30;;;1.00;;
65463;SDS011;52063;45.110;9.870;2023-05-14T13:04:37;1.63;;;0.90;;
65463;SDS011;52063;45.110;9.870;2023-05-14T13:07:02;1.20;;;0.80;;
65463;SDS011;52063;45.110;9.870;2023-05-14T13:09:28;2.45;;;0.80;;
65463;SDS011;52063;45.110;9.870;2023-05-14T13:11:53;1.27;;;0.90;;
65463;SDS011;52063;45.110;9.870;2023-05-14T13:14:19;2.87;;;0.90;;
65463;SDS011;52063;45.110;9.870;2023-05-14T13:16:44;2.00;;;0.77;;
65463;SDS011;52063;45.110;9.870;2023-05-14T13:19:09;1.48;;;0.90;;
65463;SDS011;52063;45.110;9.870;2023-05-14T13:21:35;1.20;;;0.80;;
65463;SDS011;52063;45.110;9.870;2023-05-14T13:24:00;1.70;;;0.90;;
65463;SDS011;52063;45.110;9.870;2023-05-14T13:26:26;1.13;;;0.80;;
65463;SDS011;52063;45.110;9.870;2023-05-14T13:28:52;1.07;;;0.80;;
65463;SDS011;52063;45.110;9.870;2023-05-14T13:31:18;1.13;;;0.70;;
65463;SDS011;52063;45.110;9.870;2023-05-14T13:33:43;1.10;;;0.80;;
65463;SDS011;52063;45.110;9.870;2023-05-14T13:36:09;1.90;;;0.80;;
65463;SDS011;52063;45.110;9.870;2023-05-14T13:38:36;1.83;;;0.90;;
65463;SDS011;52063;45.110;9.870;2023-05-14T13:41:02;2.30;;;0.80;;
65463;SDS011;52063;45.110;9.870;2023-05-14T13:43:28;1.00;;;0.77;;
65463;SDS011;52063;45.110;9.870;2023-05-14T13:45:54;0.90;;;0.70;;
65463;SDS011;52063;45.110;9.870;2023-05-14T13:48:20;1.37;;;0.90;;
65463;SDS011;52063;45.110;9.870;2023-05-14T13:50:45;1.27;;;0.90;;
65463;SDS011;52063;45.110;9.870;2023-05-14T13:53:11;1.63;;;0.80;;
65463;SDS011;52063;45.110;9.870;2023-05-14T13:55:36;1.50;;;0.90;;
65463;SDS011;52063;45.110;9.870;2023-05-14T13:58:02;1.27;;;0.97;;
65463;SDS011;52063;45.110;9.870;2023-05-14T14:00:27;1.10;;;0.98;;
65463;SDS011;52063;45.110;9.870;2023-05-14T14:02:54;0.77;;;0.73;;
65463;SDS011;52063;45.110;9.870;2023-05-14T14:05:19;1.10;;;0.80;;
65463;SDS011;52063;45.110;9.870;2023-05-14T14:07:45;0.90;;;0.60;;
65463;SDS011;52063;45.110;9.870;2023-05-14T14:10:10;0.90;;;0.67;;
65463;SDS011;52063;45.110;9.870;2023-05-14T14:12:36;1.13;;;0.80;;
65463;SDS011;52063;45.110;9.870;2023-05-14T14:15:01;1.00;;;0.70;;
65463;SDS011;52063;45.110;9.870;2023-05-14T14:17:28;1.65;;;0.93;;
65463;SDS011;52063;45.110;9.870;2023-05-14T14:19:53;1.20;;;0.90;;
65463;SDS011;52063;45.110;9.870;2023-05-14T14:22:19;1.65;;;0.80;;
65463;SDS011;52063;45.110;9.870;2023-05-14T14:24:44;1.23;;;0.70;;
65463;SDS011;52063;45.110;9.870;2023-05-14T14:27:10;1.87;;;0.80;;
65463;SDS011;52063;45.110;9.870;2023-05-14T14:29:35;1.40;;;0.70;;
65463;SDS011;52063;45.110;9.870;2023-05-14T14:32:01;1.00;;;0.70;;
65463;SDS011;52063;45.110;9.870;2023-05-14T14:34:27;1.60;;;0.70;;
65463;SDS011;52063;45.110;9.870;2023-05-14T14:36:52;1.00;;;0.80;;
65463;SDS011;52063;45.110;9.870;2023-05-14T14:39:18;1.63;;;0.90;;
65463;SDS011;52063;45.110;9.870;2023-05-14T14:41:43;1.43;;;0.80;;
65463;SDS011;52063;45.110;9.870;2023-05-14T14:44:09;1.88;;;0.80;;
65463;SDS011;52063;45.110;9.870;2023-05-14T14:46:34;1.80;;;0.90;;
65463;SDS011;52063;45.110;9.870;2023-05-14T14:48:59;1.27;;;0.80;;
65463;SDS011;52063;45.110;9.870;2023-05-14T14:51:25;0.90;;;0.70;;
65463;SDS011;52063;45.110;9.870;2023-05-14T14:53:50;1.07;;;0.97;;
65463;SDS011;52063;45.110;9.870;2023-05-14T14:56:16;1.03;;;0.70;;